createdAt,value
2022-09-17T00:00:55.100Z,97310.06
2022-09-17T00:02:07.116Z,97308.11
2022-09-17T00:03:09.778Z,97310.27
2022-09-17T00:04:11.996Z,97308.85
2022-09-17T00:05:13.884Z,97306.39
2022-09-17T00:06:16.054Z,97308.86
2022-09-17T00:07:18.217Z,97305.50
2022-09-17T00:08:19.875Z,97307.86
2022-09-17T00:09:21.482Z,97308.19
2022-09-17T00:10:24.219Z,97309.52
2022-09-17T00:11:30.329Z,97311.58
2022-09-17T00:12:32.158Z,97308.34
2022-09-17T00:13:33.862Z,97308.77
2022-09-17T00:14:35.673Z,97307.67
2022-09-17T00:15:45.788Z,97308.11
2022-09-17T00:16:49.286Z,97307.48
2022-09-17T00:17:57.757Z,97309.64
2022-09-17T00:19:00.854Z,97306.60
2022-09-17T00:20:02.975Z,97306.67
2022-09-17T00:21:04.697Z,97306.32
2022-09-17T00:22:06.397Z,97304.40
2022-09-17T00:23:09.595Z,97310.80
2022-09-17T00:24:13.643Z,97308.23
2022-09-17T00:25:15.506Z,97308.88
2022-09-17T00:26:17.175Z,97310.08
2022-09-17T00:27:18.799Z,97311.09
2022-09-17T00:28:20.555Z,97311.73
2022-09-17T00:29:22.230Z,97310.24
2022-09-17T00:30:23.906Z,97309.76
2022-09-17T00:31:28.007Z,97308.27
2022-09-17T00:32:30.219Z,97309.30
2022-09-17T00:33:31.869Z,97305.11
2022-09-17T00:34:33.544Z,97308.19
2022-09-17T00:35:35.183Z,97306.85
2022-09-17T00:36:39.015Z,97308.92
2022-09-17T00:37:40.939Z,97306.03
2022-09-17T00:38:43.392Z,97310.45
2022-09-17T00:39:45.347Z,97311.54
2022-09-17T00:40:46.991Z,97311.55
2022-09-17T00:41:48.627Z,97313.12
2022-09-17T00:42:53.219Z,97314.09
2022-09-17T00:44:00.785Z,97315.07
2022-09-17T00:45:02.886Z,97315.00
2022-09-17T00:46:33.146Z,97312.97
2022-09-17T00:47:56.935Z,97316.52
2022-09-17T00:49:10.908Z,97310.45
2022-09-17T00:50:26.314Z,97315.27
2022-09-17T00:51:41.620Z,97314.14
2022-09-17T00:52:50.061Z,97316.36
2022-09-17T00:53:52.005Z,97316.42
2022-09-17T00:55:11.694Z,97321.08
2022-09-17T00:56:25.350Z,97320.83
2022-09-17T00:57:28.191Z,97321.59
2022-09-17T00:58:37.728Z,97319.83
2022-09-17T00:59:42.454Z,97320.79
2022-09-17T01:00:44.226Z,97323.80
2022-09-17T01:01:46.483Z,97321.80
2022-09-17T01:02:48.334Z,97315.24
2022-09-17T01:03:50.596Z,97313.04
2022-09-17T01:04:52.302Z,97311.62
2022-09-17T01:06:14.254Z,97315.27
2022-09-17T01:07:27.628Z,97312.52
2022-09-17T01:09:04.330Z,97311.43
2022-09-17T01:10:33.631Z,97316.86
2022-09-17T01:11:59.534Z,97318.61
2022-09-17T01:13:12.935Z,97313.55
2022-09-17T01:14:33.233Z,97315.13
2022-09-17T01:15:42.972Z,97320.33
2022-09-17T01:17:05.484Z,97320.86
2022-09-17T01:18:21.698Z,97321.94
2022-09-17T01:19:48.213Z,97317.97
2022-09-17T01:21:23.766Z,97323.61
2022-09-17T01:22:52.967Z,97323.98
2022-09-17T01:24:22.208Z,97322.00
2022-09-17T01:26:02.060Z,97323.19
2022-09-17T01:27:28.432Z,97325.04
2022-09-17T01:28:53.083Z,97316.92
2022-09-17T01:30:36.985Z,97319.98
2022-09-17T01:31:56.675Z,97319.45
2022-09-17T01:33:28.781Z,97316.96
2022-09-17T01:34:45.687Z,97315.89
2022-09-17T01:36:17.483Z,97313.34
2022-09-17T01:37:30.806Z,97308.39
2022-09-17T01:38:51.482Z,97312.63
2022-09-17T01:40:14.281Z,97311.55
2022-09-17T01:41:35.227Z,97314.40
2022-09-17T01:43:00.975Z,97309.24
2022-09-17T01:44:14.214Z,97313.77
2022-09-17T01:45:28.807Z,97312.10
2022-09-17T01:46:46.847Z,97312.95
2022-09-17T01:47:55.410Z,97309.28
2022-09-17T01:49:02.926Z,97310.86
2022-09-17T01:50:12.959Z,97312.85
2022-09-17T01:51:20.116Z,97310.50
2022-09-17T01:52:26.135Z,97315.55
2022-09-17T01:53:51.635Z,97313.05
2022-09-17T01:55:00.220Z,97310.48
2022-09-17T01:56:04.334Z,97313.56
2022-09-17T01:57:14.532Z,97309.37
2022-09-17T01:58:49.646Z,97311.64
2022-09-17T01:59:59.678Z,97311.86
2022-09-17T02:01:09.838Z,97311.87
2022-09-17T02:02:32.464Z,97309.84
2022-09-17T02:03:42.123Z,97311.89
2022-09-17T02:04:55.943Z,97308.02
2022-09-17T02:06:11.747Z,97309.58
2022-09-17T02:07:21.028Z,97304.91
2022-09-17T02:08:28.669Z,97305.44
2022-09-17T02:09:42.934Z,97304.26
2022-09-17T02:10:51.531Z,97302.59
2022-09-17T02:11:58.954Z,97298.35
2022-09-17T02:13:09.344Z,97295.55
2022-09-17T02:14:21.507Z,97292.81
2022-09-17T02:15:30.463Z,97296.87
2022-09-17T02:16:36.698Z,97293.05
2022-09-17T02:17:59.387Z,97291.64
2022-09-17T02:19:18.995Z,97289.17
2022-09-17T02:20:29.878Z,97291.34
2022-09-17T02:21:34.135Z,97289.13
2022-09-17T02:22:43.703Z,97287.48
2022-09-17T02:24:01.818Z,97290.33
2022-09-17T02:25:26.411Z,97290.04
2022-09-17T02:26:28.143Z,97288.42
2022-09-17T02:27:53.691Z,97285.85
2022-09-17T02:29:05.424Z,97288.91
2022-09-17T02:30:07.776Z,97286.27
2022-09-17T02:31:10.450Z,97287.15
2022-09-17T02:32:13.275Z,97287.86
2022-09-17T02:33:15.872Z,97286.65
2022-09-17T02:34:19.869Z,97288.07
2022-09-17T02:35:22.818Z,97285.01
2022-09-17T02:36:25.003Z,97287.44
2022-09-17T02:37:27.709Z,97286.58
2022-09-17T02:38:31.040Z,97288.73
2022-09-17T02:39:33.389Z,97286.41
2022-09-17T02:40:49.580Z,97287.11
2022-09-17T02:42:05.007Z,97287.40
2022-09-17T02:43:29.242Z,97281.85
2022-09-17T02:44:50.733Z,97279.97
2022-09-17T02:46:07.907Z,97281.96
2022-09-17T02:47:39.245Z,97284.98
2022-09-17T02:48:50.944Z,97284.89
2022-09-17T02:50:18.498Z,97278.60
2022-09-17T02:51:36.898Z,97281.20
2022-09-17T02:53:08.644Z,97282.70
2022-09-17T02:54:31.250Z,97284.31
2022-09-17T02:55:51.155Z,97280.35
2022-09-17T02:57:12.596Z,97285.47
2022-09-17T02:58:16.837Z,97280.59
2022-09-17T02:59:29.524Z,97283.67
2022-09-17T03:00:33.054Z,97281.11
2022-09-17T03:01:59.792Z,97280.15
2022-09-17T03:03:07.832Z,97280.60
2022-09-17T03:04:15.910Z,97284.52
2022-09-17T03:05:21.074Z,97284.86
2022-09-17T03:06:23.481Z,97282.98
2022-09-17T03:07:26.523Z,97281.80
2022-09-17T03:08:41.733Z,97285.20
2022-09-17T03:09:43.599Z,97283.81
2022-09-17T03:10:45.303Z,97285.96
2022-09-17T03:11:47.086Z,97289.77
2022-09-17T03:12:49.511Z,97287.74
2022-09-17T03:13:51.174Z,97289.64
2022-09-17T03:14:53.011Z,97286.95
2022-09-17T03:15:54.846Z,97286.05
2022-09-17T03:16:57.439Z,97282.31
2022-09-17T03:17:59.068Z,97289.98
2022-09-17T03:19:00.714Z,97289.84
2022-09-17T03:20:02.753Z,97284.52
2022-09-17T03:21:04.654Z,97288.30
2022-09-17T03:22:06.273Z,97288.89
2022-09-17T03:23:07.949Z,97288.25
2022-09-17T03:24:11.568Z,97287.08
2022-09-17T03:25:13.468Z,97284.92
2022-09-17T03:26:15.176Z,97285.35
2022-09-17T03:27:16.953Z,97289.33
2022-09-17T03:28:18.575Z,97284.33
2022-09-17T03:29:20.657Z,97284.93
2022-09-17T03:30:22.275Z,97283.66
2022-09-17T03:31:24.070Z,97284.10
2022-09-17T03:32:25.842Z,97278.09
2022-09-17T03:33:27.522Z,97276.61
2022-09-17T03:34:29.142Z,97280.77
2022-09-17T03:35:30.800Z,97277.66
2022-09-17T03:36:32.446Z,97279.00
2022-09-17T03:37:34.248Z,97272.47
2022-09-17T03:38:36.202Z,97277.36
2022-09-17T03:39:37.914Z,97275.48
2022-09-17T03:40:40.681Z,97275.38
2022-09-17T03:41:42.445Z,97275.09
2022-09-17T03:42:44.067Z,97275.67
2022-09-17T03:43:45.778Z,97270.48
2022-09-17T03:44:47.494Z,97270.48
2022-09-17T03:45:49.174Z,97269.52
2022-09-17T03:46:51.309Z,97270.64
2022-09-17T03:47:53.034Z,97266.85
2022-09-17T03:48:54.912Z,97270.35
2022-09-17T03:49:56.542Z,97265.73
2022-09-17T03:50:58.391Z,97266.45
2022-09-17T03:52:00.097Z,97262.95
2022-09-17T03:53:01.746Z,97261.02
2022-09-17T03:54:03.534Z,97260.36
2022-09-17T03:55:05.709Z,97260.05
2022-09-17T03:56:08.299Z,97257.04
2022-09-17T03:57:09.960Z,97261.77
2022-09-17T03:58:11.782Z,97257.64
2022-09-17T03:59:13.513Z,97257.26
2022-09-17T04:00:17.408Z,97258.40
2022-09-17T04:01:19.160Z,97251.70
2022-09-17T04:02:21.214Z,97255.41
2022-09-17T04:03:23.287Z,97259.34
2022-09-17T04:04:25.124Z,97257.03
2022-09-17T04:05:26.771Z,97256.33
2022-09-17T04:06:28.398Z,97260.57
2022-09-17T04:07:30.097Z,97262.63
2022-09-17T04:08:32.629Z,97264.23
2022-09-17T04:09:35.408Z,97261.33
2022-09-17T04:10:37.312Z,97262.13
2022-09-17T04:11:38.995Z,97263.05
2022-09-17T04:12:40.653Z,97261.91
2022-09-17T04:13:42.314Z,97260.19
2022-09-17T04:14:43.946Z,97260.13
2022-09-17T04:15:46.974Z,97261.29
2022-09-17T04:16:48.649Z,97255.95
2022-09-17T04:17:50.466Z,97258.40
2022-09-17T04:18:52.098Z,97259.52
2022-09-17T04:19:53.718Z,97261.15
2022-09-17T04:20:55.409Z,97259.90
2022-09-17T04:21:57.088Z,97259.79
2022-09-17T04:22:59.153Z,97259.70
2022-09-17T04:24:00.961Z,97254.97
2022-09-17T04:25:02.669Z,97256.36
2022-09-17T04:26:04.606Z,97257.14
2022-09-17T04:27:06.273Z,97256.05
2022-09-17T04:28:08.511Z,97254.17
2022-09-17T04:29:10.208Z,97255.92
2022-09-17T04:30:12.835Z,97260.39
2022-09-17T04:31:14.501Z,97261.06
2022-09-17T04:32:16.258Z,97262.94
2022-09-17T04:33:18.136Z,97262.55
2022-09-17T04:34:19.842Z,97264.32
2022-09-17T04:35:21.520Z,97268.18
2022-09-17T04:36:23.197Z,97268.04
2022-09-17T04:37:25.677Z,97266.90
2022-09-17T04:38:27.807Z,97267.47
2022-09-17T04:39:29.530Z,97265.89
2022-09-17T04:40:31.350Z,97263.98
2022-09-17T04:41:33.004Z,97267.51
2022-09-17T04:42:34.718Z,97268.12
2022-09-17T04:43:36.388Z,97268.62
2022-09-17T04:44:38.235Z,97267.67
2022-09-17T04:45:39.916Z,97265.90
2022-09-17T04:46:41.798Z,97266.98
2022-09-17T04:47:43.461Z,97266.37
2022-09-17T04:48:45.229Z,97265.37
2022-09-17T04:49:46.881Z,97258.84
2022-09-17T04:50:48.595Z,97263.51
2022-09-17T04:51:50.289Z,97259.83
2022-09-17T04:52:51.899Z,97263.53
2022-09-17T04:53:53.609Z,97268.12
2022-09-17T04:54:55.329Z,97267.30
2022-09-17T04:55:56.978Z,97268.45
2022-09-17T04:56:59.692Z,97268.45
2022-09-17T04:58:01.399Z,97267.23
2022-09-17T04:59:03.495Z,97266.48
2022-09-17T05:00:10.459Z,97264.65
2022-09-17T05:01:13.888Z,97265.48
2022-09-17T05:02:15.680Z,97269.34
2022-09-17T05:03:17.330Z,97268.37
2022-09-17T05:04:19.187Z,97267.77
2022-09-17T05:05:22.855Z,97266.23
2022-09-17T05:06:24.561Z,97267.70
2022-09-17T05:07:26.174Z,97269.08
2022-09-17T05:08:27.865Z,97265.40
2022-09-17T05:09:29.545Z,97268.87
2022-09-17T05:10:31.171Z,97265.75
2022-09-17T05:11:32.897Z,97264.92
2022-09-17T05:12:34.763Z,97267.02
2022-09-17T05:13:36.495Z,97260.71
2022-09-17T05:14:38.214Z,97263.00
2022-09-17T05:15:39.818Z,97264.64
2022-09-17T05:16:41.782Z,97260.06
2022-09-17T05:17:43.559Z,97260.71
2022-09-17T05:18:45.467Z,97265.10
2022-09-17T05:19:47.101Z,97264.39
2022-09-17T05:20:49.203Z,97263.56
2022-09-17T05:21:50.811Z,97262.95
2022-09-17T05:22:52.924Z,97264.50
2022-09-17T05:23:54.676Z,97262.71
2022-09-17T05:24:56.724Z,97264.02
2022-09-17T05:26:00.427Z,97262.57
2022-09-17T05:27:02.046Z,97265.25
2022-09-17T05:28:03.671Z,97263.66
2022-09-17T05:29:05.373Z,97268.95
2022-09-17T05:30:08.368Z,97267.71
2022-09-17T05:31:10.546Z,97264.49
2022-09-17T05:32:12.271Z,97261.13
2022-09-17T05:33:13.874Z,97259.56
2022-09-17T05:34:15.498Z,97262.39
2022-09-17T05:35:17.327Z,97257.17
2022-09-17T05:36:18.939Z,97259.26
2022-09-17T05:37:20.564Z,97256.24
2022-09-17T05:38:22.504Z,97256.29
2022-09-17T05:39:27.529Z,97252.29
2022-09-17T05:40:30.562Z,97254.42
2022-09-17T05:41:32.237Z,97257.92
2022-09-17T05:42:34.250Z,97255.31
2022-09-17T05:43:35.942Z,97258.02
2022-09-17T05:44:37.564Z,97259.07
2022-09-17T05:45:39.415Z,97256.13
2022-09-17T05:46:41.101Z,97258.61
2022-09-17T05:47:42.779Z,97251.26
2022-09-17T05:48:44.550Z,97250.95
2022-09-17T05:49:46.191Z,97252.04
2022-09-17T05:50:47.885Z,97250.70
2022-09-17T05:51:51.854Z,97254.30
2022-09-17T05:52:54.924Z,97250.25
2022-09-17T05:53:56.526Z,97248.14
2022-09-17T05:54:58.134Z,97251.10
2022-09-17T05:56:00.137Z,97246.63
2022-09-17T05:57:01.858Z,97243.74
2022-09-17T05:58:13.289Z,97249.11
2022-09-17T05:59:15.540Z,97248.48
2022-09-17T06:00:18.331Z,97247.52
2022-09-17T06:01:19.979Z,97248.06
2022-09-17T06:02:21.627Z,97247.41
2022-09-17T06:03:23.304Z,97248.96
2022-09-17T06:04:24.961Z,97249.79
2022-09-17T06:05:26.778Z,97245.15
2022-09-17T06:06:29.658Z,97244.45
2022-09-17T06:07:31.662Z,97243.73
2022-09-17T06:08:36.709Z,97242.73
2022-09-17T06:09:38.850Z,97241.27
2022-09-17T06:10:41.482Z,97240.51
2022-09-17T06:11:43.099Z,97240.98
2022-09-17T06:12:44.957Z,97241.82
2022-09-17T06:13:46.619Z,97245.15
2022-09-17T06:14:49.071Z,97243.13
2022-09-17T06:15:52.867Z,97247.13
2022-09-17T06:16:56.243Z,97242.35
2022-09-17T06:17:57.934Z,97246.91
2022-09-17T06:18:59.742Z,97253.73
2022-09-17T06:20:02.182Z,97251.19
2022-09-17T06:21:05.578Z,97250.61
2022-09-17T06:22:07.261Z,97253.06
2022-09-17T06:23:12.734Z,97249.76
2022-09-17T06:24:17.015Z,97254.77
2022-09-17T06:25:18.888Z,97252.41
2022-09-17T06:26:20.477Z,97249.34
2022-09-17T06:27:22.276Z,97249.59
2022-09-17T06:28:24.964Z,97254.71
2022-09-17T06:29:26.865Z,97246.63
2022-09-17T06:30:28.655Z,97251.35
2022-09-17T06:31:30.850Z,97253.61
2022-09-17T06:32:33.210Z,97251.23
2022-09-17T06:33:36.207Z,97256.51
2022-09-17T06:34:37.828Z,97255.96
2022-09-17T06:35:39.434Z,97253.20
2022-09-17T06:36:41.044Z,97255.85
2022-09-17T06:37:42.661Z,97255.96
2022-09-17T06:38:45.762Z,97254.44
2022-09-17T06:39:47.539Z,97254.91
2022-09-17T06:40:53.099Z,97255.11
2022-09-17T06:41:54.754Z,97255.66
2022-09-17T06:43:00.206Z,97255.96
2022-09-17T06:44:02.284Z,97259.34
2022-09-17T06:45:08.720Z,97262.62
2022-09-17T06:46:13.041Z,97258.54
2022-09-17T06:47:14.861Z,97258.89
2022-09-17T06:48:16.508Z,97261.14
2022-09-17T06:49:19.038Z,97258.73
2022-09-17T06:50:20.860Z,97261.47
2022-09-17T06:51:22.656Z,97261.95
2022-09-17T06:52:24.361Z,97263.58
2022-09-17T06:53:26.023Z,97265.69
2022-09-17T06:54:27.621Z,97262.89
2022-09-17T06:55:29.263Z,97262.19
2022-09-17T06:56:31.079Z,97266.42
2022-09-17T06:57:32.749Z,97268.84
2022-09-17T06:58:41.183Z,97272.63
2022-09-17T06:59:42.975Z,97271.47
2022-09-17T07:00:44.918Z,97272.21
2022-09-17T07:01:47.687Z,97271.94
2022-09-17T07:03:00.678Z,97276.48
2022-09-17T07:04:03.275Z,97275.35
2022-09-17T07:05:05.715Z,97272.37
2022-09-17T07:06:10.540Z,97278.91
2022-09-17T07:07:12.415Z,97276.30
2022-09-17T07:08:14.220Z,97277.16
2022-09-17T07:09:15.841Z,97282.91
2022-09-17T07:10:20.881Z,97282.73
2022-09-17T07:11:22.522Z,97281.59
2022-09-17T07:12:24.306Z,97283.20
2022-09-17T07:13:26.633Z,97282.45
2022-09-17T07:14:28.278Z,97283.20
2022-09-17T07:15:29.999Z,97281.59
2022-09-17T07:16:35.954Z,97286.41
2022-09-17T07:17:40.205Z,97292.02
2022-09-17T07:18:41.911Z,97288.17
2022-09-17T07:19:43.541Z,97288.39
2022-09-17T07:20:45.171Z,97291.14
2022-09-17T07:21:49.091Z,97288.09
2022-09-17T07:22:58.431Z,97288.63
2022-09-17T07:24:00.244Z,97289.60
2022-09-17T07:25:02.528Z,97292.41
2022-09-17T07:26:08.078Z,97289.05
2022-09-17T07:27:09.827Z,97291.64
2022-09-17T07:28:11.519Z,97296.27
2022-09-17T07:29:13.150Z,97294.92
2022-09-17T07:30:15.498Z,97291.95
2022-09-17T07:31:17.341Z,97296.34
2022-09-17T07:32:19.019Z,97296.52
2022-09-17T07:33:23.621Z,97296.54
2022-09-17T07:34:28.040Z,97293.59
2022-09-17T07:35:29.654Z,97292.20
2022-09-17T07:36:31.292Z,97289.17
2022-09-17T07:37:32.939Z,97288.30
2022-09-17T07:38:35.153Z,97286.33
2022-09-17T07:39:36.883Z,97285.41
2022-09-17T07:40:38.593Z,97281.93
2022-09-17T07:41:40.824Z,97283.50
2022-09-17T07:42:42.440Z,97277.45
2022-09-17T07:43:45.037Z,97279.79
2022-09-17T07:44:47.046Z,97278.08
2022-09-17T07:45:48.626Z,97277.51
2022-09-17T07:46:50.325Z,97281.35
2022-09-17T07:47:51.974Z,97281.52
2022-09-17T07:48:53.670Z,97281.02
2022-09-17T07:49:55.319Z,97284.52
2022-09-17T07:50:57.825Z,97284.28
2022-09-17T07:52:05.101Z,97285.70
2022-09-17T07:53:06.734Z,97279.70
2022-09-17T07:54:08.391Z,97277.44
2022-09-17T07:55:10.074Z,97281.31
2022-09-17T07:56:12.139Z,97280.09
2022-09-17T07:57:13.989Z,97276.16
2022-09-17T07:58:15.614Z,97276.83
2022-09-17T07:59:17.450Z,97275.70
2022-09-17T08:00:19.418Z,97276.58
2022-09-17T08:01:22.609Z,97281.14
2022-09-17T08:02:24.747Z,97281.00
2022-09-17T08:03:26.761Z,97282.52
2022-09-17T08:04:28.604Z,97282.79
2022-09-17T08:05:32.367Z,97291.55
2022-09-17T08:06:38.070Z,97293.27
2022-09-17T08:07:40.143Z,97299.33
2022-09-17T08:08:42.491Z,97300.54
2022-09-17T08:09:44.397Z,97303.14
2022-09-17T08:10:46.010Z,97308.06
2022-09-17T08:11:56.361Z,97308.79
2022-09-17T08:12:59.111Z,97312.51
2022-09-17T08:14:00.969Z,97316.37
2022-09-17T08:15:02.826Z,97317.80
2022-09-17T08:16:13.376Z,97318.00
2022-09-17T08:17:15.171Z,97316.11
2022-09-17T08:18:17.393Z,97316.16
2022-09-17T08:19:19.176Z,97320.11
2022-09-17T08:20:21.950Z,97317.67
2022-09-17T08:21:24.461Z,97312.55
2022-09-17T08:22:26.646Z,97314.30
2022-09-17T08:23:30.080Z,97315.06
2022-09-17T08:24:32.173Z,97314.14
2022-09-17T08:25:33.997Z,97311.20
2022-09-17T08:26:36.051Z,97310.27
2022-09-17T08:27:38.949Z,97309.71
2022-09-17T08:28:45.555Z,97313.09
2022-09-17T08:29:47.224Z,97314.09
2022-09-17T08:30:50.328Z,97318.63
2022-09-17T08:31:52.097Z,97317.24
2022-09-17T08:32:56.785Z,97319.82
2022-09-17T08:33:58.535Z,97318.98
2022-09-17T08:35:00.245Z,97318.94
2022-09-17T08:36:03.371Z,97320.34
2022-09-17T08:37:05.326Z,97321.46
2022-09-17T08:38:07.482Z,97319.45
2022-09-17T08:39:11.105Z,97319.46
2022-09-17T08:40:23.182Z,97319.75
2022-09-17T08:41:39.934Z,97315.53
2022-09-17T08:43:11.652Z,97312.06
2022-09-17T08:44:40.753Z,97313.44
2022-09-17T08:45:42.574Z,97318.13
2022-09-17T08:46:49.430Z,97316.27
2022-09-17T08:47:51.269Z,97318.14
2022-09-17T08:49:06.491Z,97318.05
2022-09-17T08:50:27.187Z,97321.02
2022-09-17T08:51:43.543Z,97317.33
2022-09-17T08:53:23.383Z,97318.48
2022-09-17T08:54:33.692Z,97324.19
2022-09-17T08:56:11.509Z,97327.28
2022-09-17T08:57:43.579Z,97328.10
2022-09-17T08:59:08.254Z,97321.10
2022-09-17T09:00:13.019Z,97316.61
2022-09-17T09:01:35.098Z,97313.42
2022-09-17T09:03:07.372Z,97306.62
2022-09-17T09:04:33.980Z,97311.58
2022-09-17T09:05:48.390Z,97307.15
2022-09-17T09:07:00.655Z,97311.83
2022-09-17T09:08:33.623Z,97311.72
2022-09-17T09:09:46.414Z,97311.31
2022-09-17T09:11:01.746Z,97313.38
2022-09-17T09:12:33.544Z,97318.14
2022-09-17T09:14:05.450Z,97316.52
2022-09-17T09:15:36.043Z,97316.66
2022-09-17T09:16:42.584Z,97310.70
2022-09-17T09:17:48.530Z,97310.33
2022-09-17T09:18:56.163Z,97305.64
2022-09-17T09:19:58.033Z,97309.61
2022-09-17T09:21:25.598Z,97309.05
2022-09-17T09:22:47.001Z,97310.31
2022-09-17T09:24:01.272Z,97314.39
2022-09-17T09:25:15.711Z,97313.02
2022-09-17T09:26:23.605Z,97317.41
2022-09-17T09:27:29.589Z,97320.15
2022-09-17T09:28:39.912Z,97320.88
2022-09-17T09:30:07.359Z,97318.59
2022-09-17T09:31:26.893Z,97320.42
2022-09-17T09:32:58.351Z,97318.75
2022-09-17T09:34:03.770Z,97319.80
2022-09-17T09:35:22.374Z,97312.50
2022-09-17T09:36:30.117Z,97317.84
2022-09-17T09:37:39.169Z,97319.69
2022-09-17T09:38:50.058Z,97319.76
2022-09-17T09:39:55.107Z,97319.86
2022-09-17T09:41:08.967Z,97320.64
2022-09-17T09:42:23.674Z,97321.48
2022-09-17T09:44:12.612Z,97321.35
2022-09-17T09:45:23.282Z,97326.05
2022-09-17T09:46:31.088Z,97319.29
2022-09-17T09:48:07.215Z,97320.03
2022-09-17T09:49:41.984Z,97319.83
2022-09-17T09:51:10.511Z,97321.79
2022-09-17T09:52:24.142Z,97324.63
2022-09-17T09:53:42.410Z,97326.39
2022-09-17T09:55:05.646Z,97323.84
2022-09-17T09:56:43.940Z,97324.61
2022-09-17T09:58:08.602Z,97323.98
2022-09-17T09:59:13.388Z,97329.34
2022-09-17T10:00:29.753Z,97334.70
2022-09-17T10:01:38.973Z,97335.84
2022-09-17T10:02:41.869Z,97331.70
2022-09-17T10:03:46.230Z,97331.59
2022-09-17T10:04:52.748Z,97330.08
2022-09-17T10:06:08.238Z,97337.15
2022-09-17T10:07:11.770Z,97337.84
2022-09-17T10:08:16.155Z,97340.14
2022-09-17T10:09:21.567Z,97343.42
2022-09-17T10:10:23.280Z,97344.92
2022-09-17T10:11:32.412Z,97344.67
2022-09-17T10:12:34.050Z,97353.44
2022-09-17T10:13:37.899Z,97352.46
2022-09-17T10:14:44.925Z,97352.95
2022-09-17T10:15:46.716Z,97358.95
2022-09-17T10:16:48.502Z,97359.95
2022-09-17T10:18:17.259Z,97367.20
2022-09-17T10:19:25.025Z,97372.70
2022-09-17T10:20:26.683Z,97369.83
2022-09-17T10:21:34.625Z,97368.70
2022-09-17T10:22:44.682Z,97364.33
2022-09-17T10:23:47.402Z,97364.60
2022-09-17T10:24:51.043Z,97365.17
2022-09-17T10:25:55.576Z,97367.08
2022-09-17T10:27:14.131Z,97369.63
2022-09-17T10:28:24.905Z,97363.87
2022-09-17T10:29:26.749Z,97364.81
2022-09-17T10:30:28.615Z,97360.59
2022-09-17T10:31:52.905Z,97356.53
2022-09-17T10:33:25.446Z,97360.02
2022-09-17T10:34:30.221Z,97369.89
2022-09-17T10:35:33.850Z,97377.87
2022-09-17T10:36:44.798Z,97378.93
2022-09-17T10:37:52.066Z,97388.14
2022-09-17T10:38:53.783Z,97384.55
2022-09-17T10:39:56.688Z,97392.05
2022-09-17T10:41:15.007Z,97390.08
2022-09-17T10:42:18.626Z,97393.58
2022-09-17T10:43:23.192Z,97389.55
2022-09-17T10:44:28.183Z,97387.95
2022-09-17T10:45:31.414Z,97382.41
2022-09-17T10:46:34.284Z,97372.73
2022-09-17T10:47:42.425Z,97372.06
2022-09-17T10:48:59.462Z,97364.45
2022-09-17T10:50:08.239Z,97363.25
2022-09-17T10:51:19.266Z,97362.11
2022-09-17T10:52:34.339Z,97364.16
2022-09-17T10:53:55.838Z,97355.37
2022-09-17T10:55:19.031Z,97357.62
2022-09-17T10:56:36.720Z,97366.80
2022-09-17T10:58:11.854Z,97368.74
2022-09-17T10:59:25.618Z,97369.41
2022-09-17T11:00:52.308Z,97368.42
2022-09-17T11:02:11.316Z,97369.66
2022-09-17T11:03:42.759Z,97365.33
2022-09-17T11:05:21.429Z,97362.72
2022-09-17T11:06:44.876Z,97361.73
2022-09-17T11:08:16.928Z,97355.91
2022-09-17T11:09:56.668Z,97356.72
2022-09-17T11:11:26.038Z,97353.88
2022-09-17T11:12:49.719Z,97357.52
2022-09-17T11:14:37.902Z,97366.27
2022-09-17T11:15:52.763Z,97371.48
2022-09-17T11:17:06.787Z,97373.34
2022-09-17T11:18:20.522Z,97376.60
2022-09-17T11:19:58.952Z,97376.23
2022-09-17T11:21:34.114Z,97378.25
2022-09-17T11:22:57.691Z,97375.81
2022-09-17T11:24:02.419Z,97378.89
2022-09-17T11:25:15.922Z,97374.29
2022-09-17T11:26:36.350Z,97370.23
2022-09-17T11:28:13.274Z,97366.55
2022-09-17T11:29:17.920Z,97369.46
2022-09-17T11:30:22.145Z,97368.42
2022-09-17T11:31:48.511Z,97372.73
2022-09-17T11:33:24.954Z,97373.84
2022-09-17T11:34:45.514Z,97380.30
2022-09-17T11:36:00.216Z,97379.67
2022-09-17T11:37:37.249Z,97384.06
2022-09-17T11:38:43.635Z,97383.42
2022-09-17T11:40:01.785Z,97386.09
2022-09-17T11:41:12.673Z,97387.46
2022-09-17T11:42:43.374Z,97386.55
2022-09-17T11:44:18.960Z,97385.95
2022-09-17T11:45:29.251Z,97390.55
2022-09-17T11:46:43.271Z,97393.76
2022-09-17T11:47:53.901Z,97389.79
2022-09-17T11:49:10.421Z,97389.21
2022-09-17T11:50:27.762Z,97389.19
2022-09-17T11:51:42.114Z,97392.13
2022-09-17T11:53:18.246Z,97391.25
2022-09-17T11:55:13.941Z,97389.52
2022-09-17T11:56:25.433Z,97386.29
2022-09-17T11:57:35.068Z,97387.64
2022-09-17T11:58:52.216Z,97389.65
2022-09-17T12:00:06.055Z,97391.92
2022-09-17T12:01:28.684Z,97395.44
2022-09-17T12:02:49.085Z,97402.55
2022-09-17T12:04:00.555Z,97399.48
2022-09-17T12:05:14.330Z,97395.76
2022-09-17T12:06:28.808Z,97391.01
2022-09-17T12:07:33.399Z,97393.77
2022-09-17T12:09:06.287Z,97392.19
2022-09-17T12:10:32.584Z,97390.54
2022-09-17T12:11:48.304Z,97388.66
2022-09-17T12:13:07.770Z,97384.36
2022-09-17T12:14:30.990Z,97384.30
2022-09-17T12:15:39.306Z,97383.20
2022-09-17T12:16:46.341Z,97376.34
2022-09-17T12:18:20.630Z,97376.00
2022-09-17T12:19:45.471Z,97375.38
2022-09-17T12:20:54.041Z,97375.42
2022-09-17T12:22:04.409Z,97375.98
2022-09-17T12:23:14.995Z,97375.49
2022-09-17T12:24:27.075Z,97372.96
2022-09-17T12:25:42.550Z,97371.42
2022-09-17T12:27:11.588Z,97370.39
2022-09-17T12:28:30.690Z,97370.04
2022-09-17T12:29:47.196Z,97365.00
2022-09-17T12:31:05.898Z,97363.23
2022-09-17T12:32:28.649Z,97360.00
2022-09-17T12:33:46.235Z,97355.98
2022-09-17T12:35:12.508Z,97354.83
2022-09-17T12:36:40.910Z,97353.34
2022-09-17T12:38:05.690Z,97351.63
2022-09-17T12:39:22.466Z,97349.80
2022-09-17T12:40:55.415Z,97350.11
2022-09-17T12:42:24.675Z,97347.49
2022-09-17T12:43:32.314Z,97349.40
2022-09-17T12:44:52.543Z,97347.77
2022-09-17T12:45:57.053Z,97348.13
2022-09-17T12:47:40.078Z,97349.48
2022-09-17T12:49:11.358Z,97353.20
2022-09-17T12:50:19.826Z,97349.80
2022-09-17T12:51:57.911Z,97350.34
2022-09-17T12:53:20.742Z,97350.40
2022-09-17T12:54:35.816Z,97349.15
2022-09-17T12:56:12.206Z,97346.44
2022-09-17T12:57:42.576Z,97345.04
2022-09-17T12:59:21.847Z,97343.36
2022-09-17T13:00:23.462Z,97345.65
2022-09-17T13:01:25.186Z,97343.80
2022-09-17T13:02:38.699Z,97342.27
2022-09-17T13:03:50.810Z,97340.92
2022-09-17T13:05:20.352Z,97337.51
2022-09-17T13:06:37.293Z,97335.55
2022-09-17T13:07:52.714Z,97334.81
2022-09-17T13:09:04.691Z,97335.46
2022-09-17T13:10:47.653Z,97336.33
2022-09-17T13:12:05.706Z,97332.91
2022-09-17T13:13:38.122Z,97333.10
2022-09-17T13:15:11.941Z,97333.29
2022-09-17T13:16:43.667Z,97333.79
2022-09-17T13:18:23.659Z,97335.12
2022-09-17T13:19:42.935Z,97332.54
2022-09-17T13:21:03.649Z,97333.77
2022-09-17T13:22:21.357Z,97340.90
2022-09-17T13:23:40.884Z,97342.95
2022-09-17T13:24:47.507Z,97343.83
2022-09-17T13:25:54.195Z,97344.96
2022-09-17T13:26:59.037Z,97347.81
2022-09-17T13:28:08.959Z,97342.65
2022-09-17T13:29:11.530Z,97342.47
2022-09-17T13:30:20.845Z,97340.70
2022-09-17T13:31:44.590Z,97344.98
2022-09-17T13:32:53.758Z,97345.50
2022-09-17T13:34:00.935Z,97340.83
2022-09-17T13:35:11.432Z,97340.56